Time;durP1;ratioP1;P1;durP2;ratioP2;P2;SDS_P1;SDS_P2;PMS_P1;PMS_P2;Temp;Humidity;BMP_temperature;BMP_pressure;BME280_temperature;BME280_humidity;BME280_pressure;Samples;Min_cycle;Max_cycle;Signal;HPM_P1;HPM_P2
2023/08/10 00:01:33;;;;;;;7.85;1.33;;;;;;;;;;5018585;28;21535;-68
2023/08/10 00:03:58;;;;;;;8.02;1.40;;;;;;;;;;5018855;28;20029;-68
2023/08/10 00:06:23;;;;;;;7.43;1.75;;;;;;;;;;5021794;28;20038;-68
2023/08/10 00:08:50;;;;;;;10.13;1.40;;;;;;;;;;5021012;28;20052;-68
2023/08/10 00:11:15;;;;;;;7.22;1.35;;;;;;;;;;5018044;28;20045;-68
2023/08/10 00:13:40;;;;;;;5.03;1.30;;;;;;;;;;5022652;28;20056;-68
2023/08/10 00:16:05;;;;;;;7.22;1.75;;;;;;;;;;5019375;28;20072;-68
2023/08/10 00:18:31;;;;;;;6.55;1.48;;;;;;;;;;5018370;28;20037;-68
2023/08/10 00:20:56;;;;;;;12.85;1.85;;;;;;;;;;5021295;28;20037;-68
2023/08/10 00:23:21;;;;;;;8.63;1.50;;;;;;;;;;5008826;28;20034;-68
2023/08/10 00:25:47;;;;;;;7.50;1.15;;;;;;;;;;5020738;28;20040;-68
2023/08/10 00:28:13;;;;;;;8.85;1.45;;;;;;;;;;5020074;28;20033;-68
2023/08/10 00:30:38;;;;;;;6.93;1.20;;;;;;;;;;5020313;28;20139;-68
2023/08/10 00:33:04;;;;;;;8.18;1.45;;;;;;;;;;5018663;28;20087;-68
2023/08/10 00:35:30;;;;;;;5.72;1.77;;;;;;;;;;5021281;28;20048;-68
2023/08/10 00:37:55;;;;;;;10.38;1.48;;;;;;;;;;5019095;28;20040;-68
2023/08/10 00:40:21;;;;;;;6.22;1.35;;;;;;;;;;5051000;28;20084;-68
2023/08/10 00:42:46;;;;;;;9.50;1.38;;;;;;;;;;5016531;28;20037;-68
2023/08/10 00:45:11;;;;;;;12.68;1.50;;;;;;;;;;5022669;28;20037;-68
2023/08/10 00:47:37;;;;;;;6.45;1.58;;;;;;;;;;5018560;28;20040;-68
2023/08/10 00:50:03;;;;;;;5.18;1.80;;;;;;;;;;5018627;28;20047;-68
2023/08/10 00:52:29;;;;;;;7.95;1.52;;;;;;;;;;5021022;28;20034;-68
2023/08/10 00:54:54;;;;;;;4.47;1.30;;;;;;;;;;5020119;28;20064;-67
2023/08/10 00:57:20;;;;;;;10.07;2.22;;;;;;;;;;5018683;28;20520;-67
2023/08/10 00:59:47;;;;;;;10.07;1.85;;;;;;;;;;5020315;28;20391;-67
2023/08/10 01:02:13;;;;;;;11.15;2.03;;;;;;;;;;5018456;28;20367;-68
2023/08/10 01:04:41;;;;;;;9.35;1.73;;;;;;;;;;5021228;28;20064;-68
2023/08/10 01:07:12;;;;;;;10.70;1.73;;;;;;;;;;5018496;28;20067;-68
2023/08/10 01:09:41;;;;;;;6.68;1.70;;;;;;;;;;5018277;28;20175;-67
2023/08/10 01:12:22;;;;;;;9.25;1.58;;;;;;;;;;5019345;28;20124;-67
2023/08/10 01:14:53;;;;;;;11.45;2.00;;;;;;;;;;5020141;28;20029;-68
2023/08/10 01:17:20;;;;;;;5.93;2.10;;;;;;;;;;5017383;28;20044;-67
2023/08/10 01:19:49;;;;;;;8.63;2.00;;;;;;;;;;5019406;28;20040;-68
2023/08/10 01:22:20;;;;;;;7.53;1.65;;;;;;;;;;5017892;28;20049;-68
2023/08/10 01:24:55;;;;;;;12.40;1.80;;;;;;;;;;5051943;28;20058;-67
2023/08/10 01:27:20;;;;;;;7.05;1.60;;;;;;;;;;5019983;28;20025;-68
2023/08/10 01:29:45;;;;;;;11.15;2.10;;;;;;;;;;5021789;28;20040;-67
2023/08/10 01:32:14;;;;;;;10.68;1.90;;;;;;;;;;5018526;28;20040;-68
2023/08/10 01:34:39;;;;;;;8.93;2.13;;;;;;;;;;5018055;28;20129;-68
2023/08/10 01:37:04;;;;;;;14.80;2.20;;;;;;;;;;5022496;28;20033;-67
2023/08/10 01:39:32;;;;;;;9.82;2.10;;;;;;;;;;5023427;28;20125;-68
2023/08/10 01:41:57;;;;;;;10.80;1.80;;;;;;;;;;5019590;28;20064;-68
2023/08/10 01:44:25;;;;;;;5.45;1.63;;;;;;;;;;5032389;28;20031;-68
2023/08/10 01:46:53;;;;;;;8.75;1.80;;;;;;;;;;5026879;28;20476;-68
2023/08/10 01:49:20;;;;;;;13.68;1.95;;;;;;;;;;5019520;28;20033;-68
2023/08/10 01:51:46;;;;;;;5.95;1.70;;;;;;;;;;5020599;28;20059;-67
2023/08/10 01:54:11;;;;;;;7.43;2.05;;;;;;;;;;5019177;28;20287;-68
2023/08/10 01:56:37;;;;;;;4.70;1.80;;;;;;;;;;5019775;28;20056;-68
2023/08/10 01:59:04;;;;;;;6.20;1.80;;;;;;;;;;5024088;28;20033;-68
2023/08/10 02:01:29;;;;;;;10.40;2.03;;;;;;;;;;5018107;28;22309;-68
2023/08/10 02:03:57;;;;;;;10.02;1.92;;;;;;;;;;5019515;28;20083;-68
2023/08/10 02:06:22;;;;;;;5.95;1.98;;;;;;;;;;5020672;28;20040;-68
2023/08/10 02:08:47;;;;;;;13.63;2.33;;;;;;;;;;5008066;28;20025;-68
2023/08/10 02:11:13;;;;;;;9.80;2.80;;;;;;;;;;5017270;28;20053;-68
2023/08/10 02:13:38;;;;;;;7.53;2.65;;;;;;;;;;5018083;28;20072;-67
2023/08/10 02:16:03;;;;;;;8.43;2.00;;;;;;;;;;5015898;28;20040;-67
2023/08/10 02:18:29;;;;;;;8.63;2.05;;;;;;;;;;4995750;28;20033;-67
2023/08/10 02:20:54;;;;;;;7.03;1.98;;;;;;;;;;5017751;28;20033;-67
2023/08/10 02:23:19;;;;;;;8.18;2.10;;;;;;;;;;5027593;28;20040;-68
2023/08/10 02:25:44;;;;;;;6.53;2.30;;;;;;;;;;5017205;28;20101;-67
2023/08/10 02:28:10;;;;;;;7.38;2.40;;;;;;;;;;5048211;28;20073;-68
2023/08/10 02:30:35;;;;;;;9.23;2.60;;;;;;;;;;5019533;28;20502;-68
2023/08/10 02:33:00;;;;;;;5.80;2.13;;;;;;;;;;5016682;28;20036;-68
2023/08/10 02:35:26;;;;;;;7.70;2.35;;;;;;;;;;5020476;28;20052;-68
2023/08/10 02:37:51;;;;;;;6.95;2.15;;;;;;;;;;5017621;28;20120;-68
2023/08/10 02:40:16;;;;;;;6.32;2.60;;;;;;;;;;5019961;28;20142;-68
2023/08/10 02:42:45;;;;;;;6.10;2.13;;;;;;;;;;5019535;28;20037;-68
2023/08/10 02:45:10;;;;;;;4.93;2.03;;;;;;;;;;5018673;28;20037;-67
2023/08/10 02:47:38;;;;;;;6.40;2.65;;;;;;;;;;5017780;27;20048;-67
2023/08/10 02:50:11;;;;;;;10.07;2.20;;;;;;;;;;5019965;28;20056;-67
2023/08/10 02:52:36;;;;;;;5.90;2.35;;;;;;;;;;5017746;28;20040;-67
2023/08/10 02:55:03;;;;;;;8.48;2.35;;;;;;;;;;5017811;28;20068;-70
2023/08/10 02:57:29;;;;;;;7.80;2.30;;;;;;;;;;5016778;28;20036;-70
2023/08/10 02:59:54;;;;;;;6.45;2.33;;;;;;;;;;5023928;28;20060;-70
2023/08/10 03:02:20;;;;;;;6.43;2.55;;;;;;;;;;5049045;28;20052;-70
2023/08/10 03:04:45;;;;;;;6.53;2.50;;;;;;;;;;5016519;28;20088;-70
2023/08/10 03:07:11;;;;;;;7.15;2.65;;;;;;;;;;5020523;28;20135;-69
2023/08/10 03:09:37;;;;;;;5.57;2.40;;;;;;;;;;5015962;28;20044;-70
2023/08/10 03:12:05;;;;;;;4.55;2.50;;;;;;;;;;5017228;28;20052;-68
2023/08/10 03:14:30;;;;;;;6.82;2.35;;;;;;;;;;5049923;28;20037;-69
2023/08/10 03:16:55;;;;;;;10.40;2.70;;;;;;;;;;5018464;28;22143;-69
2023/08/10 03:19:21;;;;;;;6.00;2.65;;;;;;;;;;5021301;28;20493;-69
2023/08/10 03:21:48;;;;;;;7.40;2.65;;;;;;;;;;5020752;28;20040;-69
2023/08/10 03:24:13;;;;;;;9.82;3.05;;;;;;;;;;5017115;28;20029;-69
2023/08/10 03:26:39;;;;;;;7.82;3.33;;;;;;;;;;5017838;28;20037;-69
2023/08/10 03:29:06;;;;;;;11.20;3.97;;;;;;;;;;5018220;28;20059;-69
2023/08/10 03:31:32;;;;;;;9.40;2.95;;;;;;;;;;5016201;28;20040;-69
2023/08/10 03:33:57;;;;;;;7.25;2.92;;;;;;;;;;5017755;28;20090;-69
2023/08/10 03:36:22;;;;;;;11.38;3.00;;;;;;;;;;5019668;28;20087;-68
2023/08/10 03:38:48;;;;;;;9.00;2.90;;;;;;;;;;5018070;28;20534;-69
2023/08/10 03:41:15;;;;;;;7.47;3.60;;;;;;;;;;5018842;28;20037;-68
2023/08/10 03:43:41;;;;;;;10.23;3.90;;;;;;;;;;5018952;28;20041;-69
2023/08/10 03:46:08;;;;;;;14.80;6.35;;;;;;;;;;5016278;28;20052;-72
2023/08/10 03:48:34;;;;;;;19.17;6.53;;;;;;;;;;5019070;28;20399;-69
2023/08/10 03:51:00;;;;;;;15.50;5.45;;;;;;;;;;5018452;28;21002;-69
2023/08/10 03:53:25;;;;;;;15.23;5.25;;;;;;;;;;5017958;28;20135;-69
2023/08/10 03:55:51;;;;;;;12.27;5.25;;;;;;;;;;5020674;28;20044;-69
2023/08/10 03:58:16;;;;;;;15.02;5.90;;;;;;;;;;5020287;28;20397;-68
2023/08/10 04:00:44;;;;;;;14.88;5.72;;;;;;;;;;5016553;28;20037;-69
2023/08/10 04:03:11;;;;;;;17.52;5.82;;;;;;;;;;5015428;28;20048;-70
2023/08/10 04:05:36;;;;;;;17.88;6.15;;;;;;;;;;5018392;28;20044;-70
2023/08/10 04:08:05;;;;;;;14.75;5.32;;;;;;;;;;5016918;28;20040;-70
2023/08/10 04:10:32;;;;;;;19.98;7.22;;;;;;;;;;5017837;28;20124;-70
2023/08/10 04:12:58;;;;;;;23.70;8.50;;;;;;;;;;5047778;28;20055;-71
2023/08/10 04:15:23;;;;;;;22.17;8.23;;;;;;;;;;5016530;28;20037;-68
2023/08/10 04:17:49;;;;;;;29.77;9.35;;;;;;;;;;5015752;28;20036;-68
2023/08/10 04:20:14;;;;;;;21.58;8.23;;;;;;;;;;5016753;28;20037;-68
2023/08/10 04:22:39;;;;;;;16.10;8.65;;;;;;;;;;5016706;28;20541;-68
2023/08/10 04:25:07;;;;;;;18.35;8.45;;;;;;;;;;5015518;28;20052;-69
2023/08/10 04:27:35;;;;;;;19.42;8.70;;;;;;;;;;5016858;28;20041;-68
2023/08/10 04:30:02;;;;;;;16.80;6.93;;;;;;;;;;5017186;28;20049;-69
2023/08/10 04:32:28;;;;;;;21.63;6.65;;;;;;;;;;5017104;28;20079;-68
2023/08/10 04:34:53;;;;;;;16.88;6.78;;;;;;;;;;5019397;28;22252;-68
2023/08/10 04:37:18;;;;;;;23.13;9.02;;;;;;;;;;5020961;28;20029;-68
2023/08/10 04:39:46;;;;;;;25.60;8.93;;;;;;;;;;5019966;28;20402;-68
2023/08/10 04:42:12;;;;;;;21.08;8.23;;;;;;;;;;5017939;28;20406;-69
2023/08/10 04:44:37;;;;;;;16.25;7.25;;;;;;;;;;5019678;28;20086;-69
2023/08/10 04:47:02;;;;;;;17.50;6.80;;;;;;;;;;5022429;28;20122;-69
2023/08/10 04:49:28;;;;;;;17.85;6.53;;;;;;;;;;5021986;28;20187;-70
2023/08/10 04:51:54;;;;;;;14.20;6.47;;;;;;;;;;5017876;28;20033;-69
2023/08/10 04:54:19;;;;;;;16.23;6.68;;;;;;;;;;5020569;28;20033;-70
2023/08/10 04:56:46;;;;;;;22.17;7.70;;;;;;;;;;5020093;28;20033;-70
2023/08/10 04:59:11;;;;;;;19.75;7.93;;;;;;;;;;5025154;28;20029;-70
2023/08/10 05:01:36;;;;;;;25.65;8.77;;;;;;;;;;5020224;28;20033;-69
2023/08/10 05:04:01;;;;;;;20.23;8.48;;;;;;;;;;5016959;28;20052;-69
2023/08/10 05:06:27;;;;;;;25.58;10.88;;;;;;;;;;5020175;28;20060;-71
2023/08/10 05:08:52;;;;;;;16.95;9.30;;;;;;;;;;5014546;28;20029;-73
2023/08/10 05:11:17;;;;;;;17.52;8.27;;;;;;;;;;5052358;28;20531;-74
2023/08/10 05:13:43;;;;;;;23.63;9.38;;;;;;;;;;5055936;28;20052;-73
2023/08/10 05:16:08;;;;;;;16.73;7.25;;;;;;;;;;5018612;28;20036;-74
2023/08/10 05:18:34;;;;;;;19.95;8.00;;;;;;;;;;5023327;28;20552;-73
2023/08/10 05:20:59;;;;;;;19.27;9.48;;;;;;;;;;5020519;27;20131;-74
2023/08/10 05:23:25;;;;;;;28.38;9.65;;;;;;;;;;5019275;28;20068;-73
2023/08/10 05:25:50;;;;;;;20.13;8.63;;;;;;;;;;5034876;28;20033;-74
2023/08/10 05:28:16;;;;;;;19.83;7.05;;;;;;;;;;5023014;28;20056;-73
2023/08/10 05:30:41;;;;;;;20.05;7.07;;;;;;;;;;5020498;28;20045;-73
2023/08/10 05:33:06;;;;;;;17.00;9.30;;;;;;;;;;5056159;28;20040;-74
2023/08/10 05:35:31;;;;;;;19.77;8.30;;;;;;;;;;5021325;28;20090;-73
2023/08/10 05:37:57;;;;;;;18.95;7.25;;;;;;;;;;5024131;28;20060;-74
2023/08/10 05:40:23;;;;;;;14.25;6.45;;;;;;;;;;5025525;28;20037;-74
2023/08/10 05:42:49;;;;;;;12.27;5.55;;;;;;;;;;5021182;28;20025;-74
2023/08/10 05:45:20;;;;;;;20.48;6.25;;;;;;;;;;5012640;28;20056;-75
2023/08/10 05:47:46;;;;;;;12.20;5.75;;;;;;;;;;5018913;28;20175;-76
2023/08/10 05:50:14;;;;;;;15.73;6.00;;;;;;;;;;5023270;28;20045;-76
2023/08/10 05:52:40;;;;;;;18.10;6.78;;;;;;;;;;5050049;28;20061;-74
2023/08/10 05:55:05;;;;;;;21.08;8.02;;;;;;;;;;5022927;28;20837;-74
2023/08/10 05:57:31;;;;;;;17.33;8.57;;;;;;;;;;5021689;28;20577;-75
2023/08/10 05:59:56;;;;;;;18.83;8.32;;;;;;;;;;5022469;28;20033;-76
2023/08/10 06:02:22;;;;;;;18.33;7.25;;;;;;;;;;5018615;28;20044;-74
2023/08/10 06:04:48;;;;;;;16.92;6.35;;;;;;;;;;5019186;28;20064;-75
2023/08/10 06:07:14;;;;;;;13.07;5.75;;;;;;;;;;5022199;28;20121;-76
2023/08/10 06:09:39;;;;;;;14.85;6.05;;;;;;;;;;5020161;28;20071;-75
2023/08/10 06:12:06;;;;;;;15.90;6.20;;;;;;;;;;5016748;28;20042;-75
2023/08/10 06:14:31;;;;;;;12.60;5.65;;;;;;;;;;5019694;28;20049;-74
2023/08/10 06:16:57;;;;;;;13.05;5.72;;;;;;;;;;5021576;28;20125;-73
2023/08/10 06:19:22;;;;;;;11.95;5.30;;;;;;;;;;5017849;28;22439;-75
2023/08/10 06:21:48;;;;;;;12.32;5.25;;;;;;;;;;5016714;28;20044;-76
2023/08/10 06:24:16;;;;;;;18.55;5.28;;;;;;;;;;5020528;28;20064;-73
2023/08/10 06:26:41;;;;;;;9.68;4.40;;;;;;;;;;5021356;28;20099;-75
2023/08/10 06:29:06;;;;;;;7.03;3.90;;;;;;;;;;5020706;28;21024;-72
2023/08/10 06:31:32;;;;;;;10.90;4.88;;;;;;;;;;5017238;28;20048;-72
2023/08/10 06:33:57;;;;;;;10.73;4.25;;;;;;;;;;5019568;28;20516;-73
2023/08/10 06:36:26;;;;;;;13.05;4.47;;;;;;;;;;5017547;28;20816;-72
2023/08/10 06:38:52;;;;;;;12.02;4.40;;;;;;;;;;5019124;28;20037;-73
2023/08/10 06:41:21;;;;;;;11.38;4.15;;;;;;;;;;5018922;28;22403;-73
2023/08/10 06:43:46;;;;;;;10.60;3.72;;;;;;;;;;5017045;28;20086;-72
2023/08/10 06:46:14;;;;;;;13.60;3.85;;;;;;;;;;5020797;28;20037;-73
2023/08/10 06:48:39;;;;;;;14.25;3.90;;;;;;;;;;5021073;28;20044;-73
2023/08/10 06:51:05;;;;;;;10.30;3.67;;;;;;;;;;5023228;28;20056;-71
2023/08/10 06:53:31;;;;;;;9.52;3.30;;;;;;;;;;5016869;28;20074;-71
2023/08/10 06:55:56;;;;;;;8.57;3.80;;;;;;;;;;5019106;28;20668;-72
2023/08/10 06:58:24;;;;;;;12.75;4.20;;;;;;;;;;5006819;28;20136;-70
2023/08/10 07:00:50;;;;;;;9.50;3.47;;;;;;;;;;5020455;28;20043;-71
2023/08/10 07:03:15;;;;;;;13.77;3.13;;;;;;;;;;5004590;28;20044;-72
2023/08/10 07:05:42;;;;;;;15.52;3.88;;;;;;;;;;5024106;28;20048;-73
2023/08/10 07:08:10;;;;;;;8.65;4.03;;;;;;;;;;5021365;28;20086;-72
2023/08/10 07:10:37;;;;;;;12.10;4.60;;;;;;;;;;5048624;28;20604;-72
2023/08/10 07:13:03;;;;;;;21.38;5.00;;;;;;;;;;5021740;28;20052;-73
2023/08/10 07:15:32;;;;;;;11.00;4.57;;;;;;;;;;5000724;28;20534;-73
2023/08/10 07:17:57;;;;;;;15.02;4.20;;;;;;;;;;5025403;28;20032;-72
2023/08/10 07:20:25;;;;;;;15.00;4.30;;;;;;;;;;5051867;28;20199;-74
2023/08/10 07:22:51;;;;;;;12.70;4.30;;;;;;;;;;5020020;28;20245;-70
2023/08/10 07:25:17;;;;;;;15.65;3.95;;;;;;;;;;5021903;28;20449;-71
2023/08/10 07:27:42;;;;;;;15.27;4.22;;;;;;;;;;5019483;28;20036;-70
2023/08/10 07:30:09;;;;;;;17.92;4.80;;;;;;;;;;5019889;28;20048;-70
2023/08/10 07:32:34;;;;;;;15.57;3.95;;;;;;;;;;5019989;28;20437;-72
2023/08/10 07:34:59;;;;;;;14.98;3.70;;;;;;;;;;5050165;28;20435;-74
2023/08/10 07:37:25;;;;;;;15.50;4.40;;;;;;;;;;5024943;28;20041;-72
2023/08/10 07:39:50;;;;;;;10.50;4.00;;;;;;;;;;5022687;28;20090;-72
2023/08/10 07:42:15;;;;;;;12.65;3.83;;;;;;;;;;5016275;28;20076;-72
2023/08/10 07:44:40;;;;;;;14.32;3.60;;;;;;;;;;5017775;28;20065;-72
2023/08/10 07:47:06;;;;;;;9.25;3.20;;;;;;;;;;5043868;28;20030;-72
2023/08/10 07:49:31;;;;;;;11.57;3.08;;;;;;;;;;5016073;28;22436;-71
2023/08/10 07:51:57;;;;;;;11.05;3.45;;;;;;;;;;5018793;28;20133;-71
2023/08/10 07:54:23;;;;;;;10.07;3.38;;;;;;;;;;5021897;28;20033;-71
2023/08/10 07:56:48;;;;;;;12.73;3.20;;;;;;;;;;5017724;28;20095;-70
2023/08/10 07:59:13;;;;;;;8.40;3.13;;;;;;;;;;5019656;28;20572;-70
2023/08/10 08:01:40;;;;;;;10.95;3.35;;;;;;;;;;5018827;28;20041;-71
2023/08/10 08:04:06;;;;;;;12.05;3.47;;;;;;;;;;5021299;28;20036;-70
2023/08/10 08:06:34;;;;;;;9.20;3.28;;;;;;;;;;5019135;28;20037;-70
2023/08/10 08:08:59;;;;;;;11.65;3.90;;;;;;;;;;5017741;28;20466;-70
2023/08/10 08:11:24;;;;;;;11.38;3.40;;;;;;;;;;5025659;28;20076;-71
2023/08/10 08:13:50;;;;;;;9.40;3.40;;;;;;;;;;5058081;28;20049;-70
2023/08/10 08:16:15;;;;;;;7.80;3.65;;;;;;;;;;5023365;28;20045;-70
2023/08/10 08:18:40;;;;;;;11.00;3.45;;;;;;;;;;5020827;28;20064;-71
2023/08/10 08:21:06;;;;;;;10.25;3.58;;;;;;;;;;5024747;28;20091;-72
2023/08/10 08:23:31;;;;;;;8.55;3.70;;;;;;;;;;5020937;28;20091;-71
2023/08/10 08:25:57;;;;;;;9.70;3.25;;;;;;;;;;5020463;28;20033;-70
2023/08/10 08:28:22;;;;;;;7.60;3.33;;;;;;;;;;5050075;28;20036;-72
2023/08/10 08:30:48;;;;;;;11.07;3.50;;;;;;;;;;5023872;28;20072;-73
2023/08/10 08:33:14;;;;;;;13.50;3.38;;;;;;;;;;5052588;28;20123;-73
2023/08/10 08:35:43;;;;;;;18.40;4.15;;;;;;;;;;5023769;28;20064;-72
2023/08/10 08:38:08;;;;;;;13.68;3.80;;;;;;;;;;5025215;28;20029;-74
2023/08/10 08:40:34;;;;;;;12.93;3.08;;;;;;;;;;5022201;28;20102;-73
2023/08/10 08:43:01;;;;;;;12.75;3.20;;;;;;;;;;5020451;28;20037;-73
2023/08/10 08:45:27;;;;;;;17.02;3.78;;;;;;;;;;5019961;28;20123;-69
2023/08/10 08:47:52;;;;;;;11.77;3.35;;;;;;;;;;5019859;28;20435;-73
2023/08/10 08:50:17;;;;;;;13.43;3.38;;;;;;;;;;5038479;28;20098;-73
2023/08/10 08:52:43;;;;;;;10.18;3.10;;;;;;;;;;5018782;28;20041;-72
2023/08/10 08:55:10;;;;;;;13.98;3.05;;;;;;;;;;5019633;28;20185;-72
2023/08/10 08:57:38;;;;;;;13.63;3.00;;;;;;;;;;5019779;28;20041;-70
2023/08/10 09:00:04;;;;;;;11.93;2.92;;;;;;;;;;5017499;28;20044;-71
2023/08/10 09:02:30;;;;;;;12.27;2.90;;;;;;;;;;5019238;28;20272;-73
2023/08/10 09:04:59;;;;;;;10.57;2.78;;;;;;;;;;5020319;28;20036;-70
2023/08/10 09:07:25;;;;;;;13.63;2.95;;;;;;;;;;5021438;28;20040;-71
2023/08/10 09:09:51;;;;;;;12.07;3.22;;;;;;;;;;5019820;28;20044;-72
2023/08/10 09:12:29;;;;;;;11.65;2.70;;;;;;;;;;5019557;28;20045;-72
2023/08/10 09:15:02;;;;;;;9.50;2.63;;;;;;;;;;5023799;28;20040;-72
2023/08/10 09:17:27;;;;;;;10.43;2.70;;;;;;;;;;5048018;28;20047;-71
2023/08/10 09:19:53;;;;;;;16.83;3.35;;;;;;;;;;5025359;28;20114;-71
2023/08/10 09:22:39;;;;;;;11.00;2.97;;;;;;;;;;5017138;28;20037;-71
2023/08/10 09:25:06;;;;;;;12.85;2.60;;;;;;;;;;5020775;28;20036;-68
2023/08/10 09:27:32;;;;;;;13.15;2.58;;;;;;;;;;5014917;28;20033;-67
2023/08/10 09:29:59;;;;;;;15.10;3.20;;;;;;;;;;5017873;28;20048;-68
2023/08/10 09:32:24;;;;;;;13.35;2.92;;;;;;;;;;5018330;28;20079;-68
2023/08/10 09:34:50;;;;;;;11.73;2.97;;;;;;;;;;5018188;28;20398;-68
2023/08/10 09:37:15;;;;;;;13.07;2.88;;;;;;;;;;5013768;28;20032;-67
2023/08/10 09:39:41;;;;;;;19.67;3.15;;;;;;;;;;5017772;28;20551;-67
2023/08/10 09:42:06;;;;;;;16.23;2.83;;;;;;;;;;5020157;28;20033;-68
2023/08/10 09:44:42;;;;;;;9.25;2.70;;;;;;;;;;5020369;28;20037;-68
2023/08/10 09:47:07;;;;;;;10.48;3.03;;;;;;;;;;5019320;28;21049;-67
2023/08/10 09:49:33;;;;;;;14.30;3.05;;;;;;;;;;5020165;28;20033;-67
2023/08/10 09:51:59;;;;;;;11.38;3.13;;;;;;;;;;5019492;28;20075;-69
2023/08/10 09:54:24;;;;;;;14.52;3.00;;;;;;;;;;5018737;28;20137;-70
2023/08/10 09:56:50;;;;;;;10.93;3.20;;;;;;;;;;5016380;28;20036;-66
2023/08/10 09:59:16;;;;;;;9.95;3.70;;;;;;;;;;5018133;28;20106;-67
2023/08/10 10:01:41;;;;;;;12.13;3.30;;;;;;;;;;5019213;28;20167;-69
2023/08/10 10:04:06;;;;;;;12.55;3.55;;;;;;;;;;5018081;28;20041;-69
2023/08/10 10:06:34;;;;;;;14.65;3.75;;;;;;;;;;5020059;28;20068;-68
2023/08/10 10:09:01;;;;;;;15.38;3.60;;;;;;;;;;5018046;28;20064;-69
2023/08/10 10:11:28;;;;;;;14.95;3.40;;;;;;;;;;5016271;28;20134;-69
2023/08/10 10:13:53;;;;;;;13.70;2.88;;;;;;;;;;5010401;28;20167;-68
2023/08/10 10:16:19;;;;;;;10.50;2.60;;;;;;;;;;5013639;28;20045;-68
2023/08/10 10:18:44;;;;;;;11.10;2.20;;;;;;;;;;5016824;28;20509;-68
2023/08/10 10:21:10;;;;;;;10.80;2.65;;;;;;;;;;5018722;28;20041;-68
2023/08/10 10:23:39;;;;;;;7.93;2.40;;;;;;;;;;5029110;28;20033;-68
2023/08/10 10:26:08;;;;;;;10.73;2.30;;;;;;;;;;5017257;28;20173;-68
2023/08/10 10:28:34;;;;;;;9.13;1.95;;;;;;;;;;5016227;28;20180;-67
2023/08/10 10:31:05;;;;;;;11.68;2.10;;;;;;;;;;5015284;28;20717;-68
2023/08/10 10:33:31;;;;;;;10.85;2.22;;;;;;;;;;5020273;28;20149;-68
2023/08/10 10:36:18;;;;;;;11.20;2.60;;;;;;;;;;5014790;28;20584;-68
2023/08/10 10:38:47;;;;;;;9.68;2.25;;;;;;;;;;5014694;28;20034;-68
2023/08/10 10:41:13;;;;;;;10.93;1.95;;;;;;;;;;5016513;28;20041;-69
2023/08/10 10:43:39;;;;;;;13.27;2.40;;;;;;;;;;5017340;28;20067;-76
2023/08/10 10:46:04;;;;;;;8.00;2.40;;;;;;;;;;5012888;28;20410;-76
2023/08/10 10:48:36;;;;;;;7.95;2.20;;;;;;;;;;5017798;28;20289;-73
2023/08/10 10:51:02;;;;;;;10.43;2.50;;;;;;;;;;5018566;28;20040;-68
2023/08/10 10:53:27;;;;;;;18.00;2.90;;;;;;;;;;5044567;28;20041;-70
2023/08/10 10:55:53;;;;;;;13.80;2.72;;;;;;;;;;5010520;28;20160;-69
2023/08/10 10:58:19;;;;;;;9.75;2.67;;;;;;;;;;5014683;28;20041;-69
2023/08/10 11:00:44;;;;;;;8.65;2.28;;;;;;;;;;5042109;28;20025;-67
2023/08/10 11:03:10;;;;;;;6.43;2.10;;;;;;;;;;5013371;28;20169;-69
2023/08/10 11:05:36;;;;;;;8.27;2.55;;;;;;;;;;5046613;28;20639;-69
2023/08/10 11:08:03;;;;;;;9.93;2.40;;;;;;;;;;5013683;28;20266;-68
2023/08/10 11:10:29;;;;;;;9.98;2.35;;;;;;;;;;5016055;28;20812;-68
2023/08/10 11:12:55;;;;;;;15.95;2.80;;;;;;;;;;5011637;28;20493;-69
2023/08/10 11:15:21;;;;;;;5.97;2.20;;;;;;;;;;5045261;28;20099;-68
2023/08/10 11:17:47;;;;;;;8.43;2.55;;;;;;;;;;5015534;28;20050;-68
2023/08/10 11:20:15;;;;;;;4.40;1.80;;;;;;;;;;5012952;28;20591;-68
2023/08/10 11:22:43;;;;;;;11.30;2.63;;;;;;;;;;5013389;28;20032;-68
2023/08/10 11:25:13;;;;;;;8.48;1.98;;;;;;;;;;5012924;28;20039;-70
2023/08/10 11:27:43;;;;;;;8.95;1.95;;;;;;;;;;5013389;28;20067;-66
2023/08/10 11:30:09;;;;;;;9.32;2.05;;;;;;;;;;5010811;28;20085;-69
2023/08/10 11:32:46;;;;;;;9.30;2.30;;;;;;;;;;5012221;28;20080;-68
2023/08/10 11:35:12;;;;;;;5.43;2.00;;;;;;;;;;5014797;28;20075;-68
2023/08/10 11:37:38;;;;;;;8.90;2.25;;;;;;;;;;5013781;28;20025;-68
2023/08/10 11:40:11;;;;;;;7.82;2.00;;;;;;;;;;5013869;28;20082;-70
2023/08/10 11:42:37;;;;;;;6.78;1.83;;;;;;;;;;5016334;28;20034;-68
2023/08/10 11:45:06;;;;;;;4.50;1.92;;;;;;;;;;5043785;28;20029;-67
2023/08/10 11:47:58;;;;;;;5.93;2.00;;;;;;;;;;5015019;28;20509;-67
2023/08/10 11:50:24;;;;;;;9.65;2.25;;;;;;;;;;5012143;28;20037;-69
2023/08/10 11:52:50;;;;;;;8.35;2.33;;;;;;;;;;5016066;28;20074;-70
2023/08/10 11:55:16;;;;;;;4.93;1.60;;;;;;;;;;5015700;28;20033;-68
2023/08/10 11:57:50;;;;;;;5.88;2.03;;;;;;;;;;5013128;28;20048;-69
2023/08/10 12:00:26;;;;;;;6.40;2.00;;;;;;;;;;4999000;28;20034;-69
2023/08/10 12:02:58;;;;;;;5.38;1.90;;;;;;;;;;5015141;28;20044;-70
2023/08/10 12:05:35;;;;;;;6.88;1.85;;;;;;;;;;4995929;28;20257;-71
2023/08/10 12:08:00;;;;;;;10.80;1.90;;;;;;;;;;5048175;28;20491;-70
2023/08/10 12:10:32;;;;;;;8.27;1.90;;;;;;;;;;5014649;28;20098;-69
2023/08/10 12:12:58;;;;;;;7.32;2.10;;;;;;;;;;5014287;28;20897;-68
2023/08/10 12:15:23;;;;;;;8.02;2.00;;;;;;;;;;5021640;28;20038;-69
2023/08/10 12:17:49;;;;;;;5.50;1.90;;;;;;;;;;5013016;28;20032;-67
2023/08/10 12:20:14;;;;;;;5.57;2.00;;;;;;;;;;5016384;28;20544;-66
2023/08/10 12:22:40;;;;;;;13.45;2.20;;;;;;;;;;5019509;28;20033;-67
2023/08/10 12:25:05;;;;;;;7.82;2.00;;;;;;;;;;5014993;28;20053;-67
2023/08/10 12:27:33;;;;;;;6.90;2.17;;;;;;;;;;5016195;28;20040;-68
2023/08/10 12:29:58;;;;;;;7.18;1.67;;;;;;;;;;5016676;28;20036;-69
2023/08/10 12:32:23;;;;;;;8.80;1.95;;;;;;;;;;4982098;28;20042;-67
2023/08/10 12:34:49;;;;;;;4.95;1.92;;;;;;;;;;4996030;28;20563;-68
2023/08/10 12:37:14;;;;;;;8.40;2.25;;;;;;;;;;4997841;28;20037;-70
2023/08/10 12:39:39;;;;;;;11.05;2.47;;;;;;;;;;5015397;28;20057;-68
2023/08/10 12:42:05;;;;;;;9.85;1.90;;;;;;;;;;5016338;28;20521;-68
2023/08/10 12:44:30;;;;;;;6.60;1.85;;;;;;;;;;5023905;28;20036;-67
2023/08/10 12:46:57;;;;;;;5.85;1.90;;;;;;;;;;5014177;28;22592;-68
2023/08/10 12:49:22;;;;;;;6.97;2.10;;;;;;;;;;5012474;28;20033;-69
2023/08/10 12:51:48;;;;;;;7.55;2.30;;;;;;;;;;5015252;28;20091;-67
2023/08/10 12:54:13;;;;;;;3.13;1.90;;;;;;;;;;5017242;28;20136;-68
2023/08/10 12:56:38;;;;;;;7.28;2.00;;;;;;;;;;5016215;28;20623;-67
2023/08/10 12:59:04;;;;;;;7.68;2.13;;;;;;;;;;5019007;28;20037;-67
2023/08/10 13:01:29;;;;;;;8.15;2.10;;;;;;;;;;5006566;28;20042;-66
2023/08/10 13:03:54;;;;;;;7.80;2.20;;;;;;;;;;5015438;28;20205;-69
2023/08/10 13:06:19;;;;;;;6.55;2.22;;;;;;;;;;5015017;28;20036;-67
2023/08/10 13:08:46;;;;;;;6.32;2.03;;;;;;;;;;5027084;28;20037;-65
2023/08/10 13:11:14;;;;;;;9.07;2.15;;;;;;;;;;5017736;28;22260;-66
2023/08/10 13:13:39;;;;;;;9.93;2.38;;;;;;;;;;5019059;28;20845;-66
2023/08/10 13:16:05;;;;;;;9.45;2.33;;;;;;;;;;5018087;28;20037;-67
2023/08/10 13:18:30;;;;;;;10.23;2.33;;;;;;;;;;5018665;28;20070;-67
2023/08/10 13:20:55;;;;;;;5.70;2.25;;;;;;;;;;5050600;28;20075;-67
2023/08/10 13:23:21;;;;;;;6.90;2.63;;;;;;;;;;5016052;28;20289;-67
2023/08/10 13:25:46;;;;;;;13.55;2.63;;;;;;;;;;5015105;28;20049;-66
2023/08/10 13:28:11;;;;;;;10.70;2.60;;;;;;;;;;5014903;28;20094;-68
2023/08/10 13:30:36;;;;;;;7.38;2.40;;;;;;;;;;5028224;28;20041;-68
2023/08/10 13:33:02;;;;;;;6.22;2.60;;;;;;;;;;5014867;28;24552;-66
2023/08/10 13:35:29;;;;;;;15.75;2.80;;;;;;;;;;5017263;28;20037;-66
2023/08/10 13:37:55;;;;;;;7.35;2.63;;;;;;;;;;5014330;28;20033;-68
2023/08/10 13:40:20;;;;;;;10.90;2.65;;;;;;;;;;5017149;28;20036;-66
2023/08/10 13:42:49;;;;;;;5.95;2.72;;;;;;;;;;5016493;28;20672;-69
2023/08/10 13:45:14;;;;;;;9.55;3.40;;;;;;;;;;5017683;28;20033;-68
2023/08/10 13:47:42;;;;;;;9.07;3.25;;;;;;;;;;5016751;28;20078;-69
2023/08/10 13:50:13;;;;;;;6.88;2.92;;;;;;;;;;5017214;28;20068;-67
2023/08/10 13:52:39;;;;;;;8.73;3.03;;;;;;;;;;5015382;28;20053;-68
2023/08/10 13:55:04;;;;;;;8.25;2.90;;;;;;;;;;5017472;28;20039;-68
2023/08/10 13:57:32;;;;;;;8.73;2.85;;;;;;;;;;5016798;28;20075;-67
2023/08/10 13:59:58;;;;;;;7.80;3.00;;;;;;;;;;5016427;28;20029;-70
2023/08/10 14:02:24;;;;;;;6.60;3.10;;;;;;;;;;5015819;28;20036;-68
2023/08/10 14:04:49;;;;;;;6.28;3.05;;;;;;;;;;5017276;28;22233;-68
2023/08/10 14:07:14;;;;;;;11.43;3.10;;;;;;;;;;5015017;28;20449;-68
2023/08/10 14:09:40;;;;;;;8.55;2.90;;;;;;;;;;5014601;28;20028;-68
2023/08/10 14:12:08;;;;;;;7.55;2.63;;;;;;;;;;5010987;28;20045;-68
2023/08/10 14:14:33;;;;;;;10.40;3.22;;;;;;;;;;5010487;28;20045;-65
2023/08/10 14:16:58;;;;;;;8.27;3.30;;;;;;;;;;5016482;28;21006;-70
2023/08/10 14:19:26;;;;;;;7.95;3.95;;;;;;;;;;5015543;28;20042;-68
2023/08/10 14:21:52;;;;;;;9.85;3.13;;;;;;;;;;4996073;28;20181;-68
2023/08/10 14:24:17;;;;;;;7.57;3.45;;;;;;;;;;5009767;28;20082;-66
2023/08/10 14:26:42;;;;;;;7.30;3.13;;;;;;;;;;5015400;28;20033;-67
2023/08/10 14:29:10;;;;;;;10.90;3.28;;;;;;;;;;5015263;28;20061;-67
2023/08/10 14:31:36;;;;;;;10.77;3.78;;;;;;;;;;5021268;28;20044;-67